Time;durP1;ratioP1;P1;durP2;ratioP2;P2;SDS_P1;SDS_P2;PMS_P1;PMS_P2;Temp;Humidity;BMP_temperature;BMP_pressure;BME280_temperature;BME280_humidity;BME280_pressure;Samples;Min_cycle;Max_cycle;Signal;HPM_P1;HPM_P2
2021/03/22 00:01:05;;;;;;;27.35;26.75;;;;;;;;;;5092446;28;20105;-52
2021/03/22 00:03:32;;;;;;;27.85;27.08;;;;;;;;;;5088932;28;20097;-56
2021/03/22 00:06:00;;;;;;;27.60;26.80;;;;;;;;;;5081532;28;20036;-56
2021/03/22 00:08:27;;;;;;;25.77;25.17;;;;;;;;;;5096111;28;20037;-56
2021/03/22 00:10:54;;;;;;;26.25;25.55;;;;;;;;;;5092675;28;20047;-56
2021/03/22 00:13:21;;;;;;;27.67;26.88;;;;;;;;;;5092000;28;20124;-56
2021/03/22 00:15:48;;;;;;;22.73;22.23;;;;;;;;;;5092976;28;20051;-53
2021/03/22 00:18:16;;;;;;;26.13;25.63;;;;;;;;;;5094063;28;20048;-54
2021/03/22 00:20:43;;;;;;;25.92;25.33;;;;;;;;;;5095092;28;20119;-53
2021/03/22 00:23:10;;;;;;;26.65;25.83;;;;;;;;;;5095070;28;20040;-54
2021/03/22 00:25:36;;;;;;;27.65;26.75;;;;;;;;;;5083789;28;20040;-55
2021/03/22 00:28:08;;;;;;;28.67;27.63;;;;;;;;;;5094644;28;20040;-54
2021/03/22 00:30:36;;;;;;;26.75;26.17;;;;;;;;;;5092509;28;20375;-56
2021/03/22 00:33:03;;;;;;;23.45;22.85;;;;;;;;;;5093737;28;20028;-56
2021/03/22 00:35:30;;;;;;;25.52;25.02;;;;;;;;;;5092884;28;20101;-56
2021/03/22 00:37:56;;;;;;;24.70;24.20;;;;;;;;;;5086069;28;20051;-56
2021/03/22 00:40:24;;;;;;;27.58;26.83;;;;;;;;;;5092735;28;20484;-56
2021/03/22 00:42:50;;;;;;;25.27;24.70;;;;;;;;;;5092706;28;21516;-56
2021/03/22 00:45:18;;;;;;;27.02;26.17;;;;;;;;;;5093779;28;20464;-56
2021/03/22 00:47:44;;;;;;;26.70;25.90;;;;;;;;;;5092022;28;20044;-54
2021/03/22 00:50:17;;;;;;;25.27;24.73;;;;;;;;;;5085473;28;20095;-55
2021/03/22 00:52:43;;;;;;;26.33;25.77;;;;;;;;;;5094035;28;20060;-53
2021/03/22 00:55:10;;;;;;;25.90;25.33;;;;;;;;;;5093573;28;20032;-56
2021/03/22 00:57:37;;;;;;;25.05;24.17;;;;;;;;;;5092430;28;20036;-55
2021/03/22 01:00:04;;;;;;;26.13;25.52;;;;;;;;;;5089664;28;20101;-53
2021/03/22 01:02:30;;;;;;;28.48;27.58;;;;;;;;;;5093386;28;20051;-55
2021/03/22 01:04:57;;;;;;;26.10;25.60;;;;;;;;;;5088281;28;20396;-57
2021/03/22 01:07:23;;;;;;;25.73;25.23;;;;;;;;;;5082348;28;20085;-55
2021/03/22 01:09:49;;;;;;;25.58;24.65;;;;;;;;;;5093351;28;20380;-56
2021/03/22 01:12:16;;;;;;;26.38;25.60;;;;;;;;;;5090172;28;20038;-56
2021/03/22 01:14:42;;;;;;;24.33;23.73;;;;;;;;;;5092984;28;20123;-55
2021/03/22 01:17:08;;;;;;;28.15;27.30;;;;;;;;;;5091296;28;20044;-56
2021/03/22 01:19:35;;;;;;;27.42;26.70;;;;;;;;;;5092670;28;20036;-56
2021/03/22 01:22:02;;;;;;;25.48;24.67;;;;;;;;;;5092154;28;20101;-56
2021/03/22 01:24:33;;;;;;;24.63;24.13;;;;;;;;;;5093126;28;20043;-55
2021/03/22 01:27:03;;;;;;;23.13;22.63;;;;;;;;;;5089485;28;20376;-56
2021/03/22 01:29:32;;;;;;;24.88;24.45;;;;;;;;;;5090297;28;20032;-56
2021/03/22 01:32:00;;;;;;;25.67;25.08;;;;;;;;;;5090527;28;20119;-56
2021/03/22 01:34:27;;;;;;;26.00;25.23;;;;;;;;;;5092816;28;20114;-55
2021/03/22 01:36:54;;;;;;;25.85;25.05;;;;;;;;;;5092645;28;20652;-55
2021/03/22 01:39:22;;;;;;;25.40;24.90;;;;;;;;;;5092750;28;20496;-57
2021/03/22 01:42:01;;;;;;;25.35;24.75;;;;;;;;;;5093176;28;20054;-55
2021/03/22 01:44:39;;;;;;;24.83;24.33;;;;;;;;;;5088654;28;20511;-54
2021/03/22 01:47:08;;;;;;;24.42;23.92;;;;;;;;;;5080971;28;20090;-54
2021/03/22 01:49:38;;;;;;;26.35;25.75;;;;;;;;;;5090728;28;20032;-53
2021/03/22 01:52:05;;;;;;;24.48;23.88;;;;;;;;;;5081943;28;20040;-56
2021/03/22 01:54:31;;;;;;;27.30;26.48;;;;;;;;;;5078767;28;20052;-54
2021/03/22 01:57:18;;;;;;;25.20;24.55;;;;;;;;;;5092232;28;20043;-55
2021/03/22 01:59:44;;;;;;;25.00;24.30;;;;;;;;;;5092402;28;20039;-55
2021/03/22 02:02:10;;;;;;;22.05;21.65;;;;;;;;;;5092346;28;20047;-56
2021/03/22 02:04:37;;;;;;;25.83;25.33;;;;;;;;;;5092859;28;20043;-56
2021/03/22 02:07:03;;;;;;;25.67;24.98;;;;;;;;;;5091453;28;20036;-56
2021/03/22 02:09:30;;;;;;;25.30;24.83;;;;;;;;;;5092160;28;20039;-56
2021/03/22 02:11:56;;;;;;;24.20;23.70;;;;;;;;;;5091132;28;20044;-56
2021/03/22 02:14:22;;;;;;;24.65;24.08;;;;;;;;;;5092475;28;21037;-55
2021/03/22 02:17:10;;;;;;;24.55;24.15;;;;;;;;;;5089745;28;20123;-56
2021/03/22 02:19:55;;;;;;;25.75;25.35;;;;;;;;;;5085015;28;20105;-55
2021/03/22 02:22:34;;;;;;;25.33;24.77;;;;;;;;;;5091384;28;20036;-52
2021/03/22 02:25:08;;;;;;;24.85;24.35;;;;;;;;;;5091240;28;20040;-56
2021/03/22 02:27:53;;;;;;;23.17;22.77;;;;;;;;;;5090363;28;20037;-54
2021/03/22 02:30:38;;;;;;;24.27;23.65;;;;;;;;;;5084660;28;20059;-54
2021/03/22 02:33:43;;;;;;;23.95;23.55;;;;;;;;;;5092229;28;20491;-56
2021/03/22 02:36:10;;;;;;;24.05;23.48;;;;;;;;;;5042805;28;20072;-55
2021/03/22 02:38:40;;;;;;;24.42;23.92;;;;;;;;;;5032302;28;20053;-56
2021/03/22 02:41:15;;;;;;;27.50;26.92;;;;;;;;;;5057058;28;20403;-54
2021/03/22 02:43:41;;;;;;;24.98;24.48;;;;;;;;;;5081732;28;20050;-56
2021/03/22 02:46:08;;;;;;;25.40;24.80;;;;;;;;;;5089601;28;20048;-54
2021/03/22 02:48:37;;;;;;;22.63;22.13;;;;;;;;;;5089696;28;20115;-53
2021/03/22 02:51:20;;;;;;;23.38;22.98;;;;;;;;;;5092996;28;20070;-57
2021/03/22 02:53:54;;;;;;;25.02;24.52;;;;;;;;;;5089751;28;20024;-57
2021/03/22 02:56:33;;;;;;;23.73;23.13;;;;;;;;;;5090026;28;20036;-56
2021/03/22 02:59:03;;;;;;;25.75;25.25;;;;;;;;;;5090813;28;20063;-56
2021/03/22 03:01:33;;;;;;;24.27;23.67;;;;;;;;;;5091442;28;20063;-56
2021/03/22 03:04:02;;;;;;;26.83;25.98;;;;;;;;;;5087342;28;20032;-56
2021/03/22 03:06:43;;;;;;;25.50;25.00;;;;;;;;;;5089273;28;20044;-55
2021/03/22 03:09:09;;;;;;;25.50;24.95;;;;;;;;;;5087374;28;20040;-57
2021/03/22 03:11:36;;;;;;;25.30;24.80;;;;;;;;;;5091218;28;20032;-55
2021/03/22 03:14:03;;;;;;;25.13;24.42;;;;;;;;;;5090008;28;20040;-55
2021/03/22 03:16:29;;;;;;;26.00;25.38;;;;;;;;;;5090989;28;20051;-56
2021/03/22 03:18:55;;;;;;;21.98;21.58;;;;;;;;;;5090883;28;20382;-52
2021/03/22 03:21:22;;;;;;;26.05;25.38;;;;;;;;;;5086425;28;20495;-56
2021/03/22 03:23:48;;;;;;;26.48;25.88;;;;;;;;;;5085586;28;20060;-52
2021/03/22 03:26:15;;;;;;;25.83;25.23;;;;;;;;;;5091768;28;20435;-54
2021/03/22 03:28:41;;;;;;;26.15;25.58;;;;;;;;;;5070979;28;20043;-56
2021/03/22 03:31:07;;;;;;;25.65;25.08;;;;;;;;;;5088395;28;20440;-56
2021/03/22 03:33:34;;;;;;;23.70;23.25;;;;;;;;;;5090179;28;20480;-55
2021/03/22 03:36:00;;;;;;;25.58;24.73;;;;;;;;;;5090164;28;20460;-55
2021/03/22 03:38:26;;;;;;;25.33;24.83;;;;;;;;;;5085205;28;20105;-53
2021/03/22 03:40:53;;;;;;;25.10;24.60;;;;;;;;;;5082765;28;20036;-56
2021/03/22 03:43:19;;;;;;;24.50;24.08;;;;;;;;;;5084583;28;20052;-54
2021/03/22 03:45:47;;;;;;;25.13;24.38;;;;;;;;;;5089005;28;20032;-57
2021/03/22 03:48:17;;;;;;;24.73;24.23;;;;;;;;;;5090391;28;20585;-56
2021/03/22 03:50:43;;;;;;;26.13;25.58;;;;;;;;;;5090871;28;20028;-54
2021/03/22 03:53:10;;;;;;;24.00;23.58;;;;;;;;;;5088608;28;20024;-52
2021/03/22 03:55:36;;;;;;;24.17;23.77;;;;;;;;;;5088986;28;20095;-55
2021/03/22 03:58:03;;;;;;;25.92;25.42;;;;;;;;;;5087298;28;20028;-57
2021/03/22 04:00:29;;;;;;;26.23;25.38;;;;;;;;;;5089230;28;20040;-55
2021/03/22 04:02:58;;;;;;;24.88;24.48;;;;;;;;;;5085641;28;20044;-55
2021/03/22 04:05:26;;;;;;;26.15;25.55;;;;;;;;;;5082401;28;20365;-52
2021/03/22 04:07:52;;;;;;;24.50;23.80;;;;;;;;;;5090879;28;20036;-56
2021/03/22 04:10:19;;;;;;;25.45;24.95;;;;;;;;;;5088634;28;20044;-57
2021/03/22 04:12:45;;;;;;;25.90;25.27;;;;;;;;;;5089362;28;20035;-55
2021/03/22 04:15:14;;;;;;;26.95;26.45;;;;;;;;;;5086653;28;20163;-55
2021/03/22 04:17:41;;;;;;;25.80;24.92;;;;;;;;;;5089307;28;20071;-57
2021/03/22 04:20:08;;;;;;;26.65;25.98;;;;;;;;;;5082915;28;20054;-57
2021/03/22 04:22:34;;;;;;;27.15;26.55;;;;;;;;;;5088037;28;20050;-53
2021/03/22 04:25:01;;;;;;;25.08;24.35;;;;;;;;;;5079801;28;20502;-56
2021/03/22 04:27:27;;;;;;;25.98;25.23;;;;;;;;;;5085902;28;20033;-56
2021/03/22 04:29:53;;;;;;;26.95;26.20;;;;;;;;;;5086113;28;20036;-55
2021/03/22 04:32:20;;;;;;;25.05;24.45;;;;;;;;;;5090051;28;20032;-55
2021/03/22 04:34:46;;;;;;;25.77;24.98;;;;;;;;;;5091329;28;20039;-54
2021/03/22 04:37:27;;;;;;;26.17;25.67;;;;;;;;;;5086987;28;20064;-56
2021/03/22 04:39:53;;;;;;;26.60;25.50;;;;;;;;;;5088333;28;20040;-56
2021/03/22 04:42:20;;;;;;;27.25;26.55;;;;;;;;;;5089853;28;20055;-57
2021/03/22 04:44:46;;;;;;;24.08;23.52;;;;;;;;;;5090702;28;20035;-57
2021/03/22 04:47:12;;;;;;;27.15;26.20;;;;;;;;;;5090686;28;20128;-55
2021/03/22 04:49:38;;;;;;;28.13;27.40;;;;;;;;;;5088449;28;20535;-54
2021/03/22 04:52:05;;;;;;;25.40;25.00;;;;;;;;;;5092050;28;20044;-52
2021/03/22 04:54:31;;;;;;;24.88;24.25;;;;;;;;;;5091937;28;20554;-55
2021/03/22 04:57:08;;;;;;;26.08;25.48;;;;;;;;;;5079389;28;20119;-53
2021/03/22 04:59:35;;;;;;;25.15;24.55;;;;;;;;;;5092119;28;20040;-54
2021/03/22 05:02:01;;;;;;;24.45;23.60;;;;;;;;;;5093245;28;20044;-56
2021/03/22 05:04:28;;;;;;;24.85;24.45;;;;;;;;;;5093517;28;20067;-57
2021/03/22 05:06:54;;;;;;;25.77;25.17;;;;;;;;;;5092578;28;20043;-53
2021/03/22 05:09:20;;;;;;;26.05;25.45;;;;;;;;;;5093945;28;20110;-57
2021/03/22 05:11:46;;;;;;;25.90;25.40;;;;;;;;;;5093084;28;20067;-54
2021/03/22 05:14:13;;;;;;;23.98;23.48;;;;;;;;;;5089415;28;20054;-57
2021/03/22 05:16:39;;;;;;;26.23;25.73;;;;;;;;;;5077047;28;20085;-51
2021/03/22 05:19:18;;;;;;;24.95;24.20;;;;;;;;;;5092050;28;20054;-55
2021/03/22 05:21:44;;;;;;;25.10;24.55;;;;;;;;;;5093946;28;20040;-55
2021/03/22 05:24:11;;;;;;;26.40;25.70;;;;;;;;;;5092223;28;20119;-55
2021/03/22 05:26:37;;;;;;;22.45;22.05;;;;;;;;;;5090939;28;20036;-56
2021/03/22 05:29:04;;;;;;;24.65;24.25;;;;;;;;;;5088800;28;20060;-56
2021/03/22 05:31:33;;;;;;;25.27;24.63;;;;;;;;;;5103055;28;20044;-55
2021/03/22 05:33:59;;;;;;;26.40;25.80;;;;;;;;;;5092677;28;20597;-52
2021/03/22 05:36:25;;;;;;;25.83;25.23;;;;;;;;;;5091090;28;20099;-52
2021/03/22 05:38:52;;;;;;;26.58;25.80;;;;;;;;;;5092386;28;20047;-56
2021/03/22 05:41:19;;;;;;;24.75;24.13;;;;;;;;;;5081878;28;20051;-56
2021/03/22 05:44:03;;;;;;;26.05;25.15;;;;;;;;;;5103444;28;20043;-56
2021/03/22 05:46:37;;;;;;;26.95;26.00;;;;;;;;;;5097064;28;20028;-53
2021/03/22 05:49:03;;;;;;;25.08;24.65;;;;;;;;;;5091330;28;20032;-52
2021/03/22 05:51:40;;;;;;;26.63;25.90;;;;;;;;;;5093637;28;20059;-56
2021/03/22 05:54:07;;;;;;;26.83;26.20;;;;;;;;;;5091227;28;20032;-54
2021/03/22 05:57:08;;;;;;;27.05;26.20;;;;;;;;;;5093639;28;20036;-54
2021/03/22 05:59:37;;;;;;;30.95;29.38;;;;;;;;;;4995354;28;20126;-56
2021/03/22 06:02:08;;;;;;;30.63;29.13;;;;;;;;;;5066849;28;20098;-55
2021/03/22 06:04:53;;;;;;;25.75;24.75;;;;;;;;;;5091845;28;20476;-55
2021/03/22 06:07:21;;;;;;;28.13;27.02;;;;;;;;;;5092490;28;20054;-55
2021/03/22 06:09:47;;;;;;;26.52;25.55;;;;;;;;;;5091914;28;20138;-56
2021/03/22 06:12:29;;;;;;;25.83;25.23;;;;;;;;;;5091375;28;20044;-56
2021/03/22 06:15:10;;;;;;;24.15;23.75;;;;;;;;;;5092726;28;20043;-54
2021/03/22 06:17:42;;;;;;;23.85;23.55;;;;;;;;;;5091773;28;20061;-54
2021/03/22 06:20:17;;;;;;;24.17;23.80;;;;;;;;;;5092221;28;20476;-56
2021/03/22 06:22:44;;;;;;;28.67;27.88;;;;;;;;;;5093604;28;20484;-53
2021/03/22 06:25:18;;;;;;;22.35;21.90;;;;;;;;;;5092226;28;20464;-56
2021/03/22 06:27:47;;;;;;;24.50;24.00;;;;;;;;;;5093132;28;20036;-53
2021/03/22 06:30:17;;;;;;;22.75;22.45;;;;;;;;;;5090138;28;20040;-55
2021/03/22 06:32:47;;;;;;;23.92;23.52;;;;;;;;;;5091247;28;20043;-56
2021/03/22 06:35:19;;;;;;;23.98;23.48;;;;;;;;;;5089635;28;20059;-53
2021/03/22 06:37:46;;;;;;;25.48;24.95;;;;;;;;;;5080922;28;20029;-55
2021/03/22 06:40:15;;;;;;;23.85;23.48;;;;;;;;;;5086294;28;20385;-49
2021/03/22 06:42:43;;;;;;;24.55;24.00;;;;;;;;;;5085617;28;20036;-51
2021/03/22 06:45:28;;;;;;;24.20;23.73;;;;;;;;;;5091881;28;20127;-53
2021/03/22 06:48:13;;;;;;;22.92;22.42;;;;;;;;;;5091728;28;20036;-50
2021/03/22 06:50:40;;;;;;;24.88;24.38;;;;;;;;;;5088168;28;20054;-51
2021/03/22 06:53:07;;;;;;;22.10;21.80;;;;;;;;;;5099103;28;20043;-51
2021/03/22 06:55:35;;;;;;;24.63;24.10;;;;;;;;;;5091318;28;20121;-52
2021/03/22 06:58:26;;;;;;;25.13;24.70;;;;;;;;;;5090529;28;20044;-49
2021/03/22 07:01:11;;;;;;;22.65;22.15;;;;;;;;;;5090298;28;20054;-50
2021/03/22 07:03:38;;;;;;;19.58;19.08;;;;;;;;;;5091526;28;20548;-51
2021/03/22 07:06:24;;;;;;;24.50;23.77;;;;;;;;;;5088814;28;20421;-54
2021/03/22 07:08:51;;;;;;;20.65;20.25;;;;;;;;;;5091607;28;20436;-50
2021/03/22 07:11:19;;;;;;;10.00;9.65;;;;;;;;;;5090618;28;20052;-53
2021/03/22 07:14:00;;;;;;;5.97;5.88;;;;;;;;;;5089744;28;20545;-51
2021/03/22 07:16:27;;;;;;;10.60;10.30;;;;;;;;;;5092923;28;20446;-52
2021/03/22 07:19:13;;;;;;;19.88;19.27;;;;;;;;;;5088878;28;20518;-53
2021/03/22 07:21:53;;;;;;;19.80;19.33;;;;;;;;;;5100856;28;20052;-54
2021/03/22 07:24:21;;;;;;;22.27;21.65;;;;;;;;;;5091277;28;20047;-50
2021/03/22 07:26:47;;;;;;;21.35;20.95;;;;;;;;;;5091419;28;20059;-53
2021/03/22 07:29:22;;;;;;;20.30;19.85;;;;;;;;;;5090216;28;20049;-52
2021/03/22 07:31:49;;;;;;;21.38;21.05;;;;;;;;;;5091633;28;20043;-53
2021/03/22 07:34:18;;;;;;;21.20;20.85;;;;;;;;;;5091882;28;20746;-53
2021/03/22 07:36:50;;;;;;;19.67;19.10;;;;;;;;;;5090548;28;20036;-51
2021/03/22 07:39:23;;;;;;;10.63;10.32;;;;;;;;;;5092170;28;20032;-54
2021/03/22 07:42:19;;;;;;;7.75;7.65;;;;;;;;;;5089022;28;20035;-52
2021/03/22 07:45:00;;;;;;;4.28;4.18;;;;;;;;;;5070500;28;20139;-52
2021/03/22 07:47:29;;;;;;;3.80;3.75;;;;;;;;;;5089651;28;20052;-53
2021/03/22 07:50:15;;;;;;;4.47;4.38;;;;;;;;;;5076717;28;20090;-50
2021/03/22 07:52:42;;;;;;;4.47;4.38;;;;;;;;;;5089918;28;20114;-53
2021/03/22 07:55:28;;;;;;;3.83;3.63;;;;;;;;;;5089233;28;20073;-51
2021/03/22 07:58:06;;;;;;;5.47;5.15;;;;;;;;;;5072385;28;20041;-53
2021/03/22 08:00:33;;;;;;;3.38;3.28;;;;;;;;;;5092383;28;20036;-53
2021/03/22 08:03:08;;;;;;;3.88;3.88;;;;;;;;;;5090999;28;20131;-53
2021/03/22 08:06:06;;;;;;;6.95;6.85;;;;;;;;;;5089187;28;20536;-52
2021/03/22 08:08:35;;;;;;;16.00;15.65;;;;;;;;;;5091797;28;20028;-53
2021/03/22 08:11:22;;;;;;;6.50;6.32;;;;;;;;;;5089628;28;20626;-53
2021/03/22 08:14:04;;;;;;;18.92;18.55;;;;;;;;;;5089954;28;20581;-50
2021/03/22 08:17:01;;;;;;;18.15;17.85;;;;;;;;;;5091759;28;20036;-54
2021/03/22 08:19:45;;;;;;;19.75;19.45;;;;;;;;;;5090262;28;20102;-54
2021/03/22 08:22:33;;;;;;;21.38;20.88;;;;;;;;;;5079159;28;20047;-51
2021/03/22 08:25:11;;;;;;;23.65;22.85;;;;;;;;;;5089791;28;20048;-53
2021/03/22 08:27:41;;;;;;;17.95;17.55;;;;;;;;;;5093499;28;20055;-53
2021/03/22 08:30:10;;;;;;;4.30;4.20;;;;;;;;;;5093658;28;20093;-54
2021/03/22 08:32:42;;;;;;;4.45;4.35;;;;;;;;;;5094067;28;20039;-53
2021/03/22 08:35:22;;;;;;;3.95;3.85;;;;;;;;;;5095492;28;20040;-54
2021/03/22 08:37:53;;;;;;;3.60;3.40;;;;;;;;;;5093339;28;20762;-52
2021/03/22 08:40:25;;;;;;;4.03;3.90;;;;;;;;;;5093942;28;20117;-54
2021/03/22 08:42:53;;;;;;;3.47;3.47;;;;;;;;;;5094726;28;20053;-55
2021/03/22 08:45:29;;;;;;;3.20;3.10;;;;;;;;;;5092939;28;20047;-52
2021/03/22 08:48:05;;;;;;;2.13;2.13;;;;;;;;;;5091864;28;20432;-53
2021/03/22 08:50:34;;;;;;;2.70;2.70;;;;;;;;;;5078869;28;20036;-54
2021/03/22 08:53:09;;;;;;;3.53;3.53;;;;;;;;;;5093749;28;20038;-53
2021/03/22 08:55:39;;;;;;;2.97;2.92;;;;;;;;;;5086264;28;20040;-52
2021/03/22 08:58:08;;;;;;;2.58;2.58;;;;;;;;;;5092739;28;20040;-50
2021/03/22 09:00:39;;;;;;;3.17;3.00;;;;;;;;;;5094104;28;20047;-54
2021/03/22 09:03:17;;;;;;;5.72;5.55;;;;;;;;;;5094921;28;20032;-54
2021/03/22 09:06:03;;;;;;;2.28;2.28;;;;;;;;;;5093684;28;20047;-55
2021/03/22 09:08:30;;;;;;;2.58;2.45;;;;;;;;;;5092166;28;20407;-54
2021/03/22 09:11:12;;;;;;;4.25;2.25;;;;;;;;;;5092534;28;20036;-54
2021/03/22 09:13:49;;;;;;;2.17;2.17;;;;;;;;;;5095087;28;20040;-54
2021/03/22 09:16:24;;;;;;;3.13;3.03;;;;;;;;;;5092385;28;20404;-54
2021/03/22 09:19:12;;;;;;;2.30;2.20;;;;;;;;;;5093088;28;20123;-54
2021/03/22 09:21:40;;;;;;;2.72;2.72;;;;;;;;;;5093362;28;20047;-53
2021/03/22 09:24:25;;;;;;;2.70;2.70;;;;;;;;;;5094039;28;20695;-53
2021/03/22 09:26:51;;;;;;;2.42;2.33;;;;;;;;;;5087687;28;20423;-52
2021/03/22 09:29:33;;;;;;;3.35;3.25;;;;;;;;;;5083509;28;20151;-52
2021/03/22 09:32:00;;;;;;;4.30;4.00;;;;;;;;;;5083172;28;20123;-53
2021/03/22 09:34:32;;;;;;;3.15;3.05;;;;;;;;;;5112200;28;20040;-54
2021/03/22 09:36:59;;;;;;;2.70;2.60;;;;;;;;;;5092198;28;20048;-54
2021/03/22 09:39:25;;;;;;;3.60;3.50;;;;;;;;;;5093752;28;20064;-54
2021/03/22 09:42:10;;;;;;;2.72;2.67;;;;;;;;;;5092153;28;20127;-54
2021/03/22 09:44:37;;;;;;;2.25;2.00;;;;;;;;;;5092966;28;20089;-54
2021/03/22 09:47:24;;;;;;;1.90;1.90;;;;;;;;;;5092353;28;20479;-54
2021/03/22 09:50:06;;;;;;;2.92;2.72;;;;;;;;;;5092389;28;20040;-55
2021/03/22 09:53:01;;;;;;;2.72;2.72;;;;;;;;;;5092909;28;20064;-53
2021/03/22 09:55:29;;;;;;;1.77;1.77;;;;;;;;;;5086201;28;20051;-54
2021/03/22 09:57:58;;;;;;;3.53;3.17;;;;;;;;;;5091392;28;20058;-54
2021/03/22 10:00:34;;;;;;;2.67;2.58;;;;;;;;;;5091294;28;20511;-54
2021/03/22 10:03:20;;;;;;;2.03;2.03;;;;;;;;;;5092381;28;20040;-54
2021/03/22 10:05:57;;;;;;;3.20;3.20;;;;;;;;;;5094108;28;20036;-54
2021/03/22 10:08:42;;;;;;;2.65;2.55;;;;;;;;;;5092220;28;20060;-51
2021/03/22 10:11:20;;;;;;;2.80;2.80;;;;;;;;;;5084255;28;20036;-52
2021/03/22 10:13:47;;;;;;;3.78;3.70;;;;;;;;;;5091241;28;20148;-54
2021/03/22 10:16:16;;;;;;;3.80;3.53;;;;;;;;;;5092232;28;20042;-54
2021/03/22 10:18:43;;;;;;;10.75;10.65;;;;;;;;;;5092598;28;20060;-53
2021/03/22 10:21:14;;;;;;;5.15;5.00;;;;;;;;;;5090785;28;20476;-52
2021/03/22 10:24:07;;;;;;;2.80;2.63;;;;;;;;;;5092321;28;20051;-52
2021/03/22 10:26:38;;;;;;;3.03;3.03;;;;;;;;;;5068912;28;20044;-55
2021/03/22 10:29:20;;;;;;;2.28;2.28;;;;;;;;;;5090876;28;20089;-54
2021/03/22 10:31:49;;;;;;;3.53;3.33;;;;;;;;;;5090918;28;20093;-54
2021/03/22 10:34:24;;;;;;;2.95;2.85;;;;;;;;;;5093249;28;20040;-52
2021/03/22 10:36:50;;;;;;;3.95;3.85;;;;;;;;;;5092031;28;20089;-55
2021/03/22 10:39:28;;;;;;;2.75;2.75;;;;;;;;;;5091800;28;20047;-54
2021/03/22 10:41:54;;;;;;;2.25;2.25;;;;;;;;;;5092475;28;20403;-55
2021/03/22 10:44:26;;;;;;;2.72;2.72;;;;;;;;;;5090286;28;20536;-55
2021/03/22 10:47:21;;;;;;;2.20;2.20;;;;;;;;;;5092971;28;20088;-55
2021/03/22 10:49:50;;;;;;;2.65;2.55;;;;;;;;;;4997769;28;20054;-52
2021/03/22 10:52:27;;;;;;;2.10;2.10;;;;;;;;;;4998286;28;20092;-53
2021/03/22 10:54:55;;;;;;;2.60;2.60;;;;;;;;;;4998708;28;20144;-53
2021/03/22 10:57:39;;;;;;;3.40;3.20;;;;;;;;;;5001114;28;20069;-52
2021/03/22 11:00:07;;;;;;;2.85;2.75;;;;;;;;;;5000965;28;20605;-55
2021/03/22 11:03:04;;;;;;;3.60;3.60;;;;;;;;;;4987707;28;20122;-54
2021/03/22 11:05:33;;;;;;;4.80;4.78;;;;;;;;;;5000213;28;20137;-53
2021/03/22 11:08:08;;;;;;;4.30;4.22;;;;;;;;;;5003018;28;20061;-54
2021/03/22 11:10:35;;;;;;;5.63;5.53;;;;;;;;;;5003732;28;20034;-54
2021/03/22 11:13:02;;;;;;;14.68;13.20;;;;;;;;;;5000776;28;20141;-55
2021/03/22 11:15:36;;;;;;;3.85;3.70;;;;;;;;;;5007031;28;20059;-54
2021/03/22 11:18:04;;;;;;;3.42;3.33;;;;;;;;;;4991107;28;20049;-54
2021/03/22 11:20:30;;;;;;;2.83;2.83;;;;;;;;;;5002667;28;20050;-54
2021/03/22 11:23:15;;;;;;;11.15;11.05;;;;;;;;;;5000608;28;20049;-53
2021/03/22 11:25:42;;;;;;;3.08;3.08;;;;;;;;;;5027937;28;20055;-55
2021/03/22 11:28:13;;;;;;;2.85;2.75;;;;;;;;;;5092435;28;20044;-55
2021/03/22 11:30:41;;;;;;;2.28;2.17;;;;;;;;;;5088397;28;20097;-54
2021/03/22 11:33:18;;;;;;;3.40;3.40;;;;;;;;;;5088411;28;20032;-54
2021/03/22 11:35:45;;;;;;;2.45;2.35;;;;;;;;;;5090571;28;20527;-52
2021/03/22 11:38:30;;;;;;;2.38;2.28;;;;;;;;;;5091186;28;20036;-54
2021/03/22 11:40:58;;;;;;;1.55;1.55;;;;;;;;;;5083665;28;20036;-54
2021/03/22 11:43:24;;;;;;;1.40;1.40;;;;;;;;;;5090407;28;20074;-54
2021/03/22 11:45:50;;;;;;;4.25;2.13;;;;;;;;;;5086339;28;20499;-54
2021/03/22 11:48:20;;;;;;;2.15;2.15;;;;;;;;;;5091043;28;20032;-54
2021/03/22 11:50:46;;;;;;;1.30;1.30;;;;;;;;;;5089698;28;20040;-54
2021/03/22 11:53:21;;;;;;;1.20;1.20;;;;;;;;;;5090481;28;20051;-54
2021/03/22 11:55:48;;;;;;;1.45;1.33;;;;;;;;;;5092253;28;20495;-54
2021/03/22 11:58:25;;;;;;;1.35;1.35;;;;;;;;;;5090647;28;20036;-49
2021/03/22 12:00:52;;;;;;;1.20;1.20;;;;;;;;;;5092589;28;20114;-53
2021/03/22 12:03:27;;;;;;;1.50;1.40;;;;;;;;;;5092363;28;20659;-53
2021/03/22 12:06:11;;;;;;;1.40;1.40;;;;;;;;;;5094846;28;20040;-54
2021/03/22 12:08:37;;;;;;;;;;;;;;;;;;5094853;28;20032;-54
2021/03/22 12:11:05;;;;;;;1.20;1.20;;;;;;;;;;5094495;28;19920;-54
2021/03/22 12:13:32;;;;;;;1.27;1.27;;;;;;;;;;5095415;28;20035;-53
2021/03/22 12:15:59;;;;;;;1.10;1.10;;;;;;;;;;5091389;28;20044;-54
2021/03/22 12:18:30;;;;;;;1.60;1.60;;;;;;;;;;5094799;28;20062;-52
2021/03/22 12:20:57;;;;;;;1.25;1.25;;;;;;;;;;5093123;28;20075;-54
2021/03/22 12:23:32;;;;;;;1.30;1.30;;;;;;;;;;5092735;28;20055;-53
2021/03/22 12:25:58;;;;;;;1.48;1.20;;;;;;;;;;5085357;28;20046;-54
2021/03/22 12:28:24;;;;;;;1.30;1.30;;;;;;;;;;5094608;28;20041;-54
2021/03/22 12:30:50;;;;;;;1.00;1.00;;;;;;;;;;5093980;28;20085;-55
2021/03/22 12:33:22;;;;;;;1.05;1.05;;;;;;;;;;5094453;28;20040;-51
2021/03/22 12:35:48;;;;;;;1.00;1.00;;;;;;;;;;5095123;28;20032;-54
2021/03/22 12:38:14;;;;;;;1.00;1.00;;;;;;;;;;5092488;28;20052;-54
2021/03/22 12:40:41;;;;;;;1.10;1.10;;;;;;;;;;5092899;28;20046;-53
2021/03/22 12:43:10;;;;;;;1.10;1.10;;;;;;;;;;5091872;28;20039;-53
2021/03/22 12:45:37;;;;;;;1.38;1.38;;;;;;;;;;5094899;28;20051;-51
2021/03/22 12:48:05;;;;;;;1.92;1.88;;;;;;;;;;5092357;28;20063;-53
2021/03/22 12:50:34;;;;;;;1.20;1.20;;;;;;;;;;5094375;28;20035;-53
2021/03/22 12:53:00;;;;;;;2.55;2.45;;;;;;;;;;5081646;28;20115;-53
2021/03/22 12:55:28;;;;;;;2.30;2.30;;;;;;;;;;5093937;28;20426;-53
2021/03/22 12:57:56;;;;;;;1.35;1.33;;;;;;;;;;5094526;28;20036;-53
2021/03/22 13:00:25;;;;;;;1.20;1.20;;;;;;;;;;5092025;28;20523;-52
2021/03/22 13:02:52;;;;;;;1.45;1.38;;;;;;;;;;5094184;28;20388;-53
2021/03/22 13:05:28;;;;;;;1.20;1.20;;;;;;;;;;5088531;28;20120;-52
2021/03/22 13:07:55;;;;;;;1.45;1.33;;;;;;;;;;5097553;28;20039;-52
2021/03/22 13:10:23;;;;;;;1.80;1.80;;;;;;;;;;5091057;28;20042;-53
2021/03/22 13:12:50;;;;;;;4.18;4.00;;;;;;;;;;5092303;28;20036;-51
2021/03/22 13:15:36;;;;;;;4.25;4.10;;;;;;;;;;5092967;28;20038;-53
2021/03/22 13:18:16;;;;;;;1.60;1.60;;;;;;;;;;5094001;28;20046;-52
2021/03/22 13:20:44;;;;;;;1.83;1.83;;;;;;;;;;5091904;28;20046;-50
2021/03/22 13:23:11;;;;;;;1.80;1.80;;;;;;;;;;5094492;28;20032;-52
2021/03/22 13:25:38;;;;;;;1.20;1.20;;;;;;;;;;5092866;28;20032;-53
2021/03/22 13:28:25;;;;;;;1.20;1.20;;;;;;;;;;5087962;28;20076;-53
2021/03/22 13:30:56;;;;;;;1.20;1.20;;;;;;;;;;5085700;28;20044;-50
2021/03/22 13:33:24;;;;;;;1.73;1.73;;;;;;;;;;5092682;28;20039;-45
2021/03/22 13:35:52;;;;;;;1.70;1.60;;;;;;;;;;5092457;28;20057;-47
2021/03/22 13:38:22;;;;;;;1.58;1.58;;;;;;;;;;5088473;28;20052;-47
2021/03/22 13:40:49;;;;;;;1.33;1.33;;;;;;;;;;5087427;28;20075;-46
2021/03/22 13:43:17;;;;;;;1.33;1.33;;;;;;;;;;5092330;28;20071;-46
2021/03/22 13:45:43;;;;;;;1.48;1.40;;;;;;;;;;5093289;28;20040;-46
2021/03/22 13:48:11;;;;;;;1.45;1.45;;;;;;;;;;5093134;28;20043;-45
2021/03/22 13:50:39;;;;;;;1.38;1.38;;;;;;;;;;5092778;28;20124;-46
2021/03/22 13:53:06;;;;;;;1.40;1.40;;;;;;;;;;5091968;28;20044;-46
2021/03/22 13:55:44;;;;;;;1.70;1.60;;;;;;;;;;5092106;28;20040;-47
2021/03/22 13:58:15;;;;;;;1.77;1.67;;;;;;;;;;5094873;28;20066;-45
2021/03/22 14:00:41;;;;;;;1.10;1.10;;;;;;;;;;5090382;28;20040;-46
2021/03/22 14:03:07;;;;;;;1.10;1.10;;;;;;;;;;5092908;28;20486;-46
2021/03/22 14:05:35;;;;;;;0.90;0.90;;;;;;;;;;5091495;28;20042;-46
2021/03/22 14:08:02;;;;;;;1.05;1.00;;;;;;;;;;5091320;28;20078;-46
2021/03/22 14:10:28;;;;;;;1.00;1.00;;;;;;;;;;5093244;28;20380;-46
2021/03/22 14:12:55;;;;;;;1.25;1.25;;;;;;;;;;5091547;28;20396;-46
2021/03/22 14:15:23;;;;;;;1.00;1.00;;;;;;;;;;5089167;28;20040;-46
2021/03/22 14:17:49;;;;;;;1.50;1.40;;;;;;;;;;5111031;28;20079;-47
2021/03/22 14:20:16;;;;;;;1.10;1.10;;;;;;;;;;5090978;28;20120;-46
2021/03/22 14:22:43;;;;;;;1.20;1.20;;;;;;;;;;5092137;28;20625;-46
2021/03/22 14:25:09;;;;;;;1.20;1.20;;;;;;;;;;5090723;28;20075;-47
2021/03/22 14:27:38;;;;;;;1.30;1.30;;;;;;;;;;5091282;28;20039;-46
2021/03/22 14:30:06;;;;;;;1.88;1.52;;;;;;;;;;5091673;28;20051;-47
2021/03/22 14:32:32;;;;;;;1.38;1.30;;;;;;;;;;5092406;28;20128;-45
2021/03/22 14:34:59;;;;;;;1.30;1.30;;;;;;;;;;5092300;28;20036;-46
2021/03/22 14:37:26;;;;;;;1.20;1.20;;;;;;;;;;5091598;28;20036;-46
2021/03/22 14:39:52;;;;;;;1.58;1.10;;;;;;;;;;5089369;28;20032;-46
2021/03/22 14:42:19;;;;;;;1.20;1.20;;;;;;;;;;5090221;28;20040;-46
2021/03/22 14:44:45;;;;;;;1.00;1.00;;;;;;;;;;5092428;28;20064;-46
2021/03/22 14:47:12;;;;;;;1.10;1.10;;;;;;;;;;5091083;28;20024;-47
2021/03/22 14:49:38;;;;;;;1.33;1.33;;;;;;;;;;5091716;28;20478;-47
2021/03/22 14:52:05;;;;;;;1.23;1.23;;;;;;;;;;5090165;28;20093;-45